Time;durP1;ratioP1;P1;durP2;ratioP2;P2;SDS_P1;SDS_P2;PMS_P1;PMS_P2;Temp;Humidity;BMP_temperature;BMP_pressure;BME280_temperature;BME280_humidity;BME280_pressure;Samples;Min_cycle;Max_cycle;Signal;HPM_P1;HPM_P2
2022/05/24 00:00:05;;;;;;;12.00;10.80;;;;;;;;;;4919790;29;20020;-86
2022/05/24 00:02:32;;;;;;;12.95;11.60;;;;;;;;;;4919692;29;20033;-86
2022/05/24 00:04:57;;;;;;;10.82;9.77;;;;;;;;;;4919811;29;20088;-86
2022/05/24 00:07:23;;;;;;;14.60;11.18;;;;;;;;;;4919828;29;20032;-86
2022/05/24 00:09:48;;;;;;;15.63;12.45;;;;;;;;;;4919492;29;20024;-86
2022/05/24 00:12:14;;;;;;;14.02;10.77;;;;;;;;;;4919745;29;20084;-86
2022/05/24 00:17:24;;;;;;;12.10;10.77;;;;;;;;;;4919730;29;20108;-86
2022/05/24 00:19:49;;;;;;;13.75;11.15;;;;;;;;;;4902568;29;20470;-86
2022/05/24 00:22:14;;;;;;;12.98;10.32;;;;;;;;;;4919849;29;20059;-87
2022/05/24 00:24:40;;;;;;;11.25;10.13;;;;;;;;;;4919196;29;20099;-86
2022/05/24 00:27:05;;;;;;;11.98;10.77;;;;;;;;;;4919327;29;20032;-86
2022/05/24 00:29:31;;;;;;;13.27;11.52;;;;;;;;;;4919291;29;20383;-87
2022/05/24 00:31:57;;;;;;;13.27;11.88;;;;;;;;;;4919500;29;20028;-85
2022/05/24 00:34:22;;;;;;;12.52;10.27;;;;;;;;;;4919332;29;20058;-87
2022/05/24 00:36:47;;;;;;;11.57;10.35;;;;;;;;;;4919221;29;20039;-86
2022/05/24 00:39:13;;;;;;;12.52;10.32;;;;;;;;;;4919321;29;20032;-86
2022/05/24 00:41:42;;;;;;;12.90;9.77;;;;;;;;;;4919644;29;20032;-86
2022/05/24 00:44:26;;;;;;;12.43;10.00;;;;;;;;;;4919139;29;20580;-87
2022/05/24 00:47:07;;;;;;;11.75;10.55;;;;;;;;;;4918993;29;20032;-87
2022/05/24 00:49:44;;;;;;;12.23;10.10;;;;;;;;;;4919074;29;20538;-87
2022/05/24 00:52:19;;;;;;;10.40;9.40;;;;;;;;;;4918964;29;20034;-86
2022/05/24 00:54:45;;;;;;;12.82;9.23;;;;;;;;;;4918127;29;20020;-86
2022/05/24 00:57:18;;;;;;;11.02;9.50;;;;;;;;;;4919061;29;20081;-86
2022/05/24 00:59:55;;;;;;;10.38;9.25;;;;;;;;;;4918862;29;20028;-86
2022/05/24 01:02:21;;;;;;;10.25;9.23;;;;;;;;;;4902047;29;20020;-86
2022/05/24 01:04:46;;;;;;;9.82;8.75;;;;;;;;;;4918749;29;20028;-86
2022/05/24 01:07:12;;;;;;;12.68;8.90;;;;;;;;;;4918875;29;20036;-87
2022/05/24 01:09:46;;;;;;;10.93;8.63;;;;;;;;;;4918464;29;20032;-86
2022/05/24 01:12:22;;;;;;;10.23;9.07;;;;;;;;;;4901841;29;20460;-83
2022/05/24 01:14:48;;;;;;;10.60;9.40;;;;;;;;;;4918796;29;20035;-87
2022/05/24 01:17:14;;;;;;;11.52;9.48;;;;;;;;;;4918681;29;20511;-86
2022/05/24 01:19:43;;;;;;;12.65;9.85;;;;;;;;;;4918552;29;20036;-86
2022/05/24 01:22:31;;;;;;;10.40;9.30;;;;;;;;;;4918499;29;20035;-86
2022/05/24 01:25:07;;;;;;;10.30;9.27;;;;;;;;;;4918257;29;20048;-86
2022/05/24 01:27:35;;;;;;;12.13;10.48;;;;;;;;;;4918476;29;20028;-86
2022/05/24 01:30:02;;;;;;;11.10;9.55;;;;;;;;;;4918345;29;20076;-86
2022/05/24 01:37:56;;;;;;;9.15;8.25;;;;;;;;;;4918157;29;20046;-86
2022/05/24 01:40:21;;;;;;;10.98;9.88;;;;;;;;;;4918307;29;20522;-86
2022/05/24 01:42:47;;;;;;;11.35;10.23;;;;;;;;;;4918287;29;20452;-86
2022/05/24 01:45:18;;;;;;;11.45;10.25;;;;;;;;;;4918181;29;20111;-86
2022/05/24 01:47:47;;;;;;;13.18;11.88;;;;;;;;;;4917983;29;20059;-86
2022/05/24 01:50:17;;;;;;;14.52;10.50;;;;;;;;;;4917804;29;20075;-86
2022/05/24 01:52:48;;;;;;;10.52;8.63;;;;;;;;;;4917883;29;20044;-86
2022/05/24 01:55:20;;;;;;;11.93;9.32;;;;;;;;;;4917903;29;20028;-86
2022/05/24 01:57:51;;;;;;;11.63;9.00;;;;;;;;;;4917671;29;20498;-87
2022/05/24 02:00:17;;;;;;;9.57;8.60;;;;;;;;;;4917772;29;20039;-86
2022/05/24 02:02:43;;;;;;;10.15;9.15;;;;;;;;;;4917681;29;20032;-86
2022/05/24 02:05:10;;;;;;;10.77;9.68;;;;;;;;;;4917745;29;20035;-86
2022/05/24 02:07:36;;;;;;;9.82;8.93;;;;;;;;;;4917619;29;20099;-86
2022/05/24 02:10:03;;;;;;;10.05;9.05;;;;;;;;;;4917699;29;20028;-87
2022/05/24 02:12:46;;;;;;;10.50;9.15;;;;;;;;;;4917736;29;20464;-86
2022/05/24 02:15:24;;;;;;;9.57;8.40;;;;;;;;;;4917587;29;20115;-87
2022/05/24 02:17:57;;;;;;;10.00;9.00;;;;;;;;;;4917492;29;20479;-87
2022/05/24 02:20:35;;;;;;;10.90;9.80;;;;;;;;;;4917513;29;20059;-85
2022/05/24 02:23:00;;;;;;;12.55;10.68;;;;;;;;;;4917318;29;20079;-86
2022/05/24 02:25:47;;;;;;;11.60;10.40;;;;;;;;;;4917373;29;20029;-86
2022/05/24 02:28:13;;;;;;;13.18;11.13;;;;;;;;;;4917640;29;20067;-86
2022/05/24 02:30:46;;;;;;;12.43;11.18;;;;;;;;;;4917345;29;20032;-86
2022/05/24 02:33:11;;;;;;;12.50;11.13;;;;;;;;;;4917584;29;20107;-86
2022/05/24 02:35:37;;;;;;;13.48;11.25;;;;;;;;;;4917290;29;20486;-86
2022/05/24 02:38:04;;;;;;;14.63;11.23;;;;;;;;;;4917256;29;20040;-87
2022/05/24 02:43:13;;;;;;;14.30;12.85;;;;;;;;;;4917042;29;20039;-86
2022/05/24 02:45:39;;;;;;;16.55;12.48;;;;;;;;;;4917345;29;20036;-86
2022/05/24 02:48:05;;;;;;;12.45;11.15;;;;;;;;;;4917369;29;20115;-86
2022/05/24 02:50:30;;;;;;;10.93;8.93;;;;;;;;;;4917257;29;20032;-86
2022/05/24 02:52:56;;;;;;;11.18;10.05;;;;;;;;;;4917170;29;20464;-87
2022/05/24 02:55:22;;;;;;;15.75;12.77;;;;;;;;;;4917240;29;20032;-87
2022/05/24 02:57:47;;;;;;;11.23;10.05;;;;;;;;;;4917166;29;20484;-87
2022/05/24 03:00:19;;;;;;;10.27;9.30;;;;;;;;;;4917133;29;20032;-87
2022/05/24 03:02:45;;;;;;;10.93;8.65;;;;;;;;;;4917064;29;20067;-87
2022/05/24 03:05:12;;;;;;;10.15;9.00;;;;;;;;;;4917170;29;20052;-83
2022/05/24 03:10:23;;;;;;;9.43;8.40;;;;;;;;;;4917286;29;20035;-85
2022/05/24 03:15:33;;;;;;;9.50;8.27;;;;;;;;;;4916777;29;20054;-87
2022/05/24 03:17:59;;;;;;;9.35;8.35;;;;;;;;;;4918357;29;20455;-87
2022/05/24 03:20:26;;;;;;;11.32;10.23;;;;;;;;;;4920838;29;20024;-86
2022/05/24 03:22:51;;;;;;;10.23;9.20;;;;;;;;;;4920501;29;20060;-86
2022/05/24 03:25:17;;;;;;;11.68;9.88;;;;;;;;;;4920663;29;20114;-86
2022/05/24 03:27:42;;;;;;;12.40;9.77;;;;;;;;;;4920307;29;20091;-87
2022/05/24 03:30:08;;;;;;;11.40;9.73;;;;;;;;;;4920532;29;20103;-87
2022/05/24 03:32:34;;;;;;;12.15;11.05;;;;;;;;;;4920670;29;20028;-86
2022/05/24 03:35:07;;;;;;;13.50;12.10;;;;;;;;;;4920916;29;20028;-87
2022/05/24 03:37:32;;;;;;;11.57;10.35;;;;;;;;;;4920551;29;20107;-87
2022/05/24 03:39:58;;;;;;;10.93;9.70;;;;;;;;;;4920294;29;20063;-87
2022/05/24 03:42:23;;;;;;;9.55;8.52;;;;;;;;;;4920123;29;20068;-87
2022/05/24 03:44:49;;;;;;;10.80;9.68;;;;;;;;;;4920369;29;20080;-87
2022/05/24 03:47:14;;;;;;;10.90;9.80;;;;;;;;;;4920063;29;20463;-86
2022/05/24 03:49:40;;;;;;;12.52;11.05;;;;;;;;;;4920405;29;20028;-87
2022/05/24 03:52:06;;;;;;;12.55;11.15;;;;;;;;;;4920115;29;20084;-87
2022/05/24 03:54:31;;;;;;;14.95;12.98;;;;;;;;;;4920027;29;20024;-86
2022/05/24 03:59:41;;;;;;;14.80;11.82;;;;;;;;;;4920052;29;20105;-87
2022/05/24 04:02:07;;;;;;;14.93;13.43;;;;;;;;;;4920194;29;20024;-85
2022/05/24 04:04:32;;;;;;;15.05;12.57;;;;;;;;;;4919702;29;20028;-86
2022/05/24 04:06:58;;;;;;;13.68;12.27;;;;;;;;;;4919740;29;20439;-86
2022/05/24 04:09:23;;;;;;;15.73;11.55;;;;;;;;;;4919949;29;20036;-86
2022/05/24 04:11:49;;;;;;;12.80;10.70;;;;;;;;;;4919688;29;20036;-84
2022/05/24 04:14:14;;;;;;;10.27;9.20;;;;;;;;;;4919987;29;20030;-86
2022/05/24 04:16:40;;;;;;;11.98;9.15;;;;;;;;;;4919500;29;20028;-86
2022/05/24 04:19:05;;;;;;;10.45;9.35;;;;;;;;;;4919851;29;20373;-86
2022/05/24 04:21:32;;;;;;;12.63;9.75;;;;;;;;;;4902872;29;20028;-86
2022/05/24 04:23:57;;;;;;;13.18;9.70;;;;;;;;;;4920004;29;20067;-87
2022/05/24 04:26:23;;;;;;;10.93;9.82;;;;;;;;;;4921054;29;20483;-86
2022/05/24 04:28:49;;;;;;;11.52;10.32;;;;;;;;;;4918877;29;20040;-87
2022/05/24 04:31:14;;;;;;;12.32;11.05;;;;;;;;;;4918793;29;20064;-87
2022/05/24 04:33:40;;;;;;;14.85;11.63;;;;;;;;;;4919471;29;20033;-86
2022/05/24 04:36:06;;;;;;;15.52;11.63;;;;;;;;;;4921524;29;20040;-82
2022/05/24 04:38:31;;;;;;;12.85;11.65;;;;;;;;;;4938537;29;20023;-85
2022/05/24 04:43:51;;;;;;;14.70;13.15;;;;;;;;;;4885161;29;20058;-86
2022/05/24 04:46:17;;;;;;;16.05;13.63;;;;;;;;;;4928238;29;20028;-81
2022/05/24 04:48:42;;;;;;;14.15;12.70;;;;;;;;;;4927447;29;20059;-81
2022/05/24 04:51:08;;;;;;;16.52;13.27;;;;;;;;;;4919613;29;20034;-80
2022/05/24 04:53:33;;;;;;;14.80;11.93;;;;;;;;;;4919502;29;20036;-84
2022/05/24 04:55:58;;;;;;;15.60;11.93;;;;;;;;;;4919183;29;20024;-88
2022/05/24 04:58:24;;;;;;;15.23;12.38;;;;;;;;;;4901915;29;20024;-87
2022/05/24 05:00:50;;;;;;;14.63;13.18;;;;;;;;;;4918784;29;20028;-90
2022/05/24 05:03:17;;;;;;;15.15;13.65;;;;;;;;;;4918723;29;20028;-90
2022/05/24 05:05:44;;;;;;;16.52;14.55;;;;;;;;;;4919359;29;20107;-90
2022/05/24 05:08:10;;;;;;;16.83;14.48;;;;;;;;;;4918645;29;20493;-90
2022/05/24 05:10:37;;;;;;;16.05;14.35;;;;;;;;;;4919951;29;20107;-88
2022/05/24 05:13:04;;;;;;;16.95;15.13;;;;;;;;;;4920144;29;20464;-90
2022/05/24 05:15:34;;;;;;;16.55;14.43;;;;;;;;;;4918991;29;20508;-86
2022/05/24 05:18:18;;;;;;;;;;;;;;;;;;4918930;29;20060;-87
2022/05/24 05:20:44;;;;;;;15.85;14.20;;;;;;;;;;4933209;29;19930;-88
2022/05/24 05:23:15;;;;;;;17.17;15.32;;;;;;;;;;4918644;29;20020;-90
2022/05/24 05:25:42;;;;;;;16.27;14.57;;;;;;;;;;4918291;29;20044;-87
2022/05/24 05:28:08;;;;;;;16.23;14.27;;;;;;;;;;4918319;29;20102;-92
2022/05/24 05:33:18;;;;;;;15.75;13.48;;;;;;;;;;4918286;29;20152;-86
2022/05/24 05:35:45;;;;;;;13.88;11.88;;;;;;;;;;4918429;29;20483;-87
2022/05/24 05:38:11;;;;;;;19.40;13.32;;;;;;;;;;4904957;29;20119;-87
2022/05/24 05:40:37;;;;;;;17.27;15.23;;;;;;;;;;4917916;29;20164;-85
2022/05/24 05:43:02;;;;;;;17.23;14.68;;;;;;;;;;4918115;29;20444;-85
2022/05/24 05:45:27;;;;;;;18.45;13.80;;;;;;;;;;4918320;29;20032;-89
2022/05/24 05:47:54;;;;;;;23.98;16.05;;;;;;;;;;4917955;29;20051;-89
2022/05/24 05:50:20;;;;;;;23.75;17.23;;;;;;;;;;4917982;29;20475;-86
2022/05/24 05:52:47;;;;;;;17.15;15.07;;;;;;;;;;4900738;29;20039;-90
2022/05/24 05:55:12;;;;;;;21.25;16.00;;;;;;;;;;4918072;29;20031;-84
2022/05/24 05:57:39;;;;;;;20.00;15.77;;;;;;;;;;4917961;29;20028;-89
2022/05/24 06:00:08;;;;;;;16.08;14.32;;;;;;;;;;4917786;29;20068;-89
2022/05/24 06:02:34;;;;;;;14.85;13.13;;;;;;;;;;4917821;29;20036;-87
2022/05/24 06:04:59;;;;;;;16.33;13.10;;;;;;;;;;4918230;29;20088;-88
2022/05/24 06:07:25;;;;;;;14.70;13.20;;;;;;;;;;4917648;29;20032;-85
2022/05/24 06:09:50;;;;;;;15.30;12.80;;;;;;;;;;4917672;29;20028;-84
2022/05/24 06:12:17;;;;;;;14.27;12.80;;;;;;;;;;4917717;29;20542;-83
2022/05/24 06:14:42;;;;;;;14.80;12.65;;;;;;;;;;4900540;29;20059;-85
2022/05/24 06:17:08;;;;;;;12.98;11.68;;;;;;;;;;4917506;29;20066;-85
2022/05/24 06:19:33;;;;;;;17.92;14.25;;;;;;;;;;4900879;29;20036;-87
2022/05/24 06:21:59;;;;;;;15.02;13.40;;;;;;;;;;4900726;29;20109;-88
2022/05/24 06:24:24;;;;;;;13.65;12.18;;;;;;;;;;4917231;29;20040;-84
2022/05/24 06:26:50;;;;;;;14.40;12.95;;;;;;;;;;4917466;29;20059;-88
2022/05/24 06:29:17;;;;;;;13.65;11.90;;;;;;;;;;4917325;29;20039;-85
2022/05/24 06:31:44;;;;;;;13.27;11.98;;;;;;;;;;4917892;29;20030;-87
2022/05/24 06:34:11;;;;;;;13.85;11.85;;;;;;;;;;4917525;29;20420;-86
2022/05/24 06:36:36;;;;;;;13.48;12.10;;;;;;;;;;4917518;29;20044;-88
2022/05/24 06:39:02;;;;;;;14.80;13.23;;;;;;;;;;4917296;29;20035;-82
2022/05/24 06:41:27;;;;;;;12.73;11.48;;;;;;;;;;4900581;29;20032;-85
2022/05/24 06:43:53;;;;;;;15.77;11.93;;;;;;;;;;4917448;29;20472;-79
2022/05/24 06:46:19;;;;;;;13.57;11.63;;;;;;;;;;4917459;29;20029;-79
2022/05/24 06:48:44;;;;;;;13.25;11.93;;;;;;;;;;4900160;29;20476;-79
2022/05/24 06:51:15;;;;;;;15.70;12.20;;;;;;;;;;4917402;29;20035;-80
2022/05/24 06:53:43;;;;;;;15.45;13.85;;;;;;;;;;4919506;29;20105;-79
2022/05/24 06:56:09;;;;;;;14.40;12.43;;;;;;;;;;4921159;29;20487;-81
2022/05/24 06:58:36;;;;;;;15.30;12.63;;;;;;;;;;4921037;29;20080;-79
2022/05/24 07:03:47;;;;;;;16.10;12.10;;;;;;;;;;4921152;29;20036;-79
2022/05/24 07:06:15;;;;;;;12.40;11.18;;;;;;;;;;4920881;29;20021;-79
2022/05/24 07:08:44;;;;;;;14.25;12.85;;;;;;;;;;4920863;29;20390;-80
2022/05/24 07:11:10;;;;;;;;;;;;;;;;;;4921432;29;20028;-80
2022/05/24 07:13:36;;;;;;;14.35;12.77;;;;;;;;;;4921053;29;20370;-80
2022/05/24 07:16:02;;;;;;;14.45;12.23;;;;;;;;;;4920685;29;20467;-80
2022/05/24 07:18:27;;;;;;;21.27;13.45;;;;;;;;;;4920447;29;20035;-80
2022/05/24 07:20:54;;;;;;;15.15;12.60;;;;;;;;;;4920656;29;20036;-80
2022/05/24 07:23:23;;;;;;;16.20;12.60;;;;;;;;;;4920275;29;20037;-81
2022/05/24 07:25:48;;;;;;;14.63;12.40;;;;;;;;;;4920707;29;20032;-82
2022/05/24 07:28:18;;;;;;;12.38;11.07;;;;;;;;;;4920566;29;20032;-81
2022/05/24 07:30:43;;;;;;;;;;;;;;;;;;4920956;29;20028;-81
2022/05/24 07:33:10;;;;;;;13.57;12.02;;;;;;;;;;4920507;29;20010;-81
2022/05/24 07:35:37;;;;;;;12.40;11.07;;;;;;;;;;4920402;29;20072;-81
2022/05/24 07:38:06;;;;;;;16.20;11.77;;;;;;;;;;4920452;29;20031;-85
2022/05/24 08:34:49;;;;;;;16.45;14.80;;;;;;;;;;4958430;28;20047;-85
2022/05/24 08:37:15;;;;;;;13.38;11.52;;;;;;;;;;4976983;28;20117;-91
2022/05/24 08:39:40;;;;;;;17.80;15.32;;;;;;;;;;4976769;28;20070;-87
2022/05/24 08:42:29;;;;;;;13.05;11.77;;;;;;;;;;4976758;28;20441;-87
2022/05/24 08:48:30;;;;;;;16.77;13.85;;;;;;;;;;4968127;28;20089;-86
2022/05/24 08:51:06;;;;;;;18.17;15.00;;;;;;;;;;4976529;28;20113;-89
2022/05/24 08:53:42;;;;;;;18.20;14.75;;;;;;;;;;4976550;28;20022;-86
2022/05/24 08:56:12;;;;;;;17.08;15.27;;;;;;;;;;4976784;28;20027;-87
2022/05/24 08:58:43;;;;;;;20.83;17.05;;;;;;;;;;4976645;28;20026;-88
2022/05/24 09:01:16;;;;;;;15.63;14.05;;;;;;;;;;4959142;28;20019;-88
2022/05/24 09:03:41;;;;;;;20.17;16.27;;;;;;;;;;4959340;28;20367;-89
2022/05/24 09:06:24;;;;;;;14.23;12.75;;;;;;;;;;4976606;28;20023;-84
2022/05/24 09:09:08;;;;;;;13.27;11.90;;;;;;;;;;4976807;28;20031;-85
2022/05/24 09:11:36;;;;;;;21.95;17.95;;;;;;;;;;4976198;28;20038;-85
2022/05/24 09:14:20;;;;;;;18.63;14.57;;;;;;;;;;4976074;28;20388;-84
2022/05/24 09:17:06;;;;;;;22.02;17.40;;;;;;;;;;4975640;28;20033;-84
2022/05/24 09:19:38;;;;;;;25.45;18.65;;;;;;;;;;4926587;28;20050;-84
2022/05/24 09:22:06;;;;;;;23.40;16.92;;;;;;;;;;4976186;28;20374;-85
2022/05/24 09:24:41;;;;;;;23.30;17.88;;;;;;;;;;4958456;28;20025;-84
2022/05/24 09:27:16;;;;;;;17.52;12.13;;;;;;;;;;4958408;28;20030;-83
2022/05/24 09:30:05;;;;;;;17.65;15.75;;;;;;;;;;4975830;28;20030;-85
2022/05/24 09:32:36;;;;;;;22.85;19.48;;;;;;;;;;4976463;28;20097;-84
2022/05/24 09:35:18;;;;;;;26.00;20.65;;;;;;;;;;4975764;28;20047;-84
2022/05/24 09:38:08;;;;;;;24.52;17.02;;;;;;;;;;4978781;28;20117;-89
2022/05/24 09:41:00;;;;;;;23.45;19.05;;;;;;;;;;4959118;28;20031;-88
2022/05/24 09:43:27;;;;;;;20.70;16.58;;;;;;;;;;4976233;28;20026;-94
2022/05/24 09:46:04;;;;;;;22.98;16.58;;;;;;;;;;4975627;28;20378;-86
2022/05/24 09:48:33;;;;;;;21.83;16.58;;;;;;;;;;4976430;28;20035;-91
2022/05/24 09:51:02;;;;;;;25.42;18.55;;;;;;;;;;4961023;28;20026;-94
2022/05/24 09:53:30;;;;;;;19.23;15.70;;;;;;;;;;4959195;28;20027;-88
2022/05/24 09:56:01;;;;;;;16.52;12.32;;;;;;;;;;4977168;28;20030;-94
2022/05/24 09:58:37;;;;;;;10.13;8.30;;;;;;;;;;4977407;28;20517;-92
2022/05/24 10:01:07;;;;;;;11.13;6.18;;;;;;;;;;4980745;28;20034;-92
2022/05/24 10:03:46;;;;;;;13.45;6.47;;;;;;;;;;4986068;28;20030;-93
2022/05/24 10:06:25;;;;;;;;;;;;;;;;;;4988002;28;20085;-96
2022/05/24 10:09:26;;;;;;;11.27;5.38;;;;;;;;;;4969117;28;19921;-96
2022/05/24 10:12:19;;;;;;;12.30;5.53;;;;;;;;;;4989573;23;20031;-96
2022/05/24 10:14:56;;;;;;;9.98;6.00;;;;;;;;;;4975697;29;20031;-95
2022/05/24 10:17:59;;;;;;;11.68;6.05;;;;;;;;;;4950861;29;20490;-93
2022/05/24 10:20:54;;;;;;;11.15;5.68;;;;;;;;;;4957241;29;20034;-89
2022/05/24 10:23:42;;;;;;;11.77;6.47;;;;;;;;;;4939210;29;20031;-89
2022/05/24 10:26:50;;;;;;;11.20;5.68;;;;;;;;;;4955352;28;20561;-88
2022/05/24 10:29:58;;;;;;;8.43;5.80;;;;;;;;;;4859167;29;20135;-87
2022/05/24 10:39:14;;;;;;;10.15;5.85;;;;;;;;;;4957790;29;20116;-89
2022/05/24 10:41:54;;;;;;;9.88;5.38;;;;;;;;;;4938548;28;20498;-90
2022/05/24 10:44:42;;;;;;;10.98;5.57;;;;;;;;;;4939534;29;20027;-90
2022/05/24 10:47:24;;;;;;;9.27;5.88;;;;;;;;;;4938292;29;20393;-91
2022/05/24 10:49:56;;;;;;;8.60;5.10;;;;;;;;;;4937856;29;20019;-90
2022/05/24 10:52:33;;;;;;;9.10;5.20;;;;;;;;;;4940131;28;20035;-94
2022/05/24 10:55:12;;;;;;;10.82;4.82;;;;;;;;;;4941156;29;20031;-94
2022/05/24 10:57:44;;;;;;;10.98;6.15;;;;;;;;;;4937036;29;20047;-88
2022/05/24 11:00:17;;;;;;;11.15;5.78;;;;;;;;;;4936617;29;20028;-91
2022/05/24 11:02:57;;;;;;;11.82;5.93;;;;;;;;;;4919438;29;20483;-91
2022/05/24 11:05:25;;;;;;;9.30;5.25;;;;;;;;;;4940965;29;20030;-89
2022/05/24 11:08:05;;;;;;;9.03;5.40;;;;;;;;;;4948463;29;20106;-90
2022/05/24 11:10:36;;;;;;;12.57;5.38;;;;;;;;;;4938088;29;20031;-90
2022/05/24 11:13:12;;;;;;;10.73;6.05;;;;;;;;;;4955076;28;20050;-90
2022/05/24 11:15:44;;;;;;;11.43;5.82;;;;;;;;;;4955076;28;20114;-90
2022/05/24 11:18:18;;;;;;;9.68;5.38;;;;;;;;;;4955313;28;20466;-89
2022/05/24 11:21:09;;;;;;;10.48;5.35;;;;;;;;;;4955155;28;20027;-89
2022/05/24 11:24:04;;;;;;;7.68;5.05;;;;;;;;;;4955308;28;20031;-89
2022/05/24 11:26:34;;;;;;;10.35;5.35;;;;;;;;;;4937563;29;20034;-89
2022/05/24 11:29:16;;;;;;;10.27;5.18;;;;;;;;;;4954988;29;20032;-89
2022/05/24 11:31:47;;;;;;;9.07;5.68;;;;;;;;;;4937618;29;20382;-90
2022/05/24 11:34:28;;;;;;;7.25;4.35;;;;;;;;;;4938059;29;20027;-82
2022/05/24 11:37:05;;;;;;;10.77;4.72;;;;;;;;;;4937662;29;20117;-82
2022/05/24 11:39:39;;;;;;;5.47;4.72;;;;;;;;;;4956927;28;20094;-82
2022/05/24 11:42:33;;;;;;;9.70;5.65;;;;;;;;;;4958375;28;20056;-82
2022/05/24 11:45:20;;;;;;;12.75;5.28;;;;;;;;;;4941228;29;20035;-82
2022/05/24 17:04:18;;;;;;;12.07;8.23;;;;;;;;;;4915361;29;20052;-82
2022/05/24 17:06:44;;;;;;;11.30;7.30;;;;;;;;;;4918695;29;20111;-81
2022/05/24 17:09:11;;;;;;;13.85;6.75;;;;;;;;;;4918883;29;20052;-81
2022/05/24 17:11:37;;;;;;;13.68;7.78;;;;;;;;;;4932232;29;20023;-80
2022/05/24 17:14:02;;;;;;;10.38;6.90;;;;;;;;;;4937623;29;20030;-80
2022/05/24 17:16:28;;;;;;;11.00;7.00;;;;;;;;;;4937565;29;20364;-80
2022/05/24 17:18:53;;;;;;;9.95;7.70;;;;;;;;;;4937959;29;20027;-81
2022/05/24 17:21:19;;;;;;;8.73;6.70;;;;;;;;;;4937585;29;20430;-79
2022/05/24 17:23:44;;;;;;;9.82;6.78;;;;;;;;;;4937657;29;20023;-81
2022/05/24 17:26:12;;;;;;;8.93;6.65;;;;;;;;;;4937583;29;20032;-80
2022/05/24 17:28:39;;;;;;;14.60;7.00;;;;;;;;;;4937593;29;20570;-80
2022/05/24 17:31:05;;;;;;;11.77;7.57;;;;;;;;;;4937218;29;20031;-80
2022/05/24 17:33:32;;;;;;;12.10;7.05;;;;;;;;;;4937487;29;20035;-81
2022/05/24 17:35:58;;;;;;;9.27;6.82;;;;;;;;;;4937206;29;20028;-83
2022/05/24 17:38:26;;;;;;;13.77;7.22;;;;;;;;;;4936627;29;20462;-80
2022/05/24 17:40:55;;;;;;;12.93;7.93;;;;;;;;;;4929137;29;20067;-86
2022/05/24 17:43:24;;;;;;;;;;;;;;;;;;4918773;29;20391;-85
2022/05/24 17:45:50;;;;;;;8.48;6.95;;;;;;;;;;4918939;29;20330;-88
2022/05/24 17:48:20;;;;;;;9.82;7.18;;;;;;;;;;4918218;29;20036;-84
2022/05/24 17:50:46;;;;;;;10.48;7.10;;;;;;;;;;4918068;29;20024;-82
2022/05/24 17:53:14;;;;;;;12.50;7.05;;;;;;;;;;4902270;29;20038;-82
2022/05/24 17:55:42;;;;;;;9.40;7.00;;;;;;;;;;4901481;29;20387;-82
2022/05/24 17:58:08;;;;;;;10.48;7.00;;;;;;;;;;4918173;29;20429;-82
2022/05/24 18:00:34;;;;;;;12.75;7.20;;;;;;;;;;4918050;29;20036;-82
2022/05/24 18:03:00;;;;;;;9.38;6.57;;;;;;;;;;4918176;29;20047;-83
2022/05/24 18:05:25;;;;;;;9.27;6.75;;;;;;;;;;4917855;29;20044;-84
2022/05/24 18:07:51;;;;;;;10.10;7.65;;;;;;;;;;4917737;29;20390;-81
2022/05/24 18:10:17;;;;;;;11.50;8.23;;;;;;;;;;4918266;29;20091;-80
2022/05/24 18:12:45;;;;;;;11.07;7.65;;;;;;;;;;4918054;29;20580;-81
2022/05/24 18:15:13;;;;;;;9.33;7.80;;;;;;;;;;4918323;29;20020;-85
2022/05/24 18:17:39;;;;;;;12.82;8.27;;;;;;;;;;4917714;29;20156;-87
2022/05/24 18:20:07;;;;;;;9.60;8.02;;;;;;;;;;4918561;29;20036;-89
2022/05/24 18:22:37;;;;;;;10.43;8.77;;;;;;;;;;4901045;29;20122;-83
2022/05/24 18:25:09;;;;;;;11.60;8.82;;;;;;;;;;4932144;29;20107;-81
2022/05/24 18:33:18;;;;;;;18.50;12.63;;;;;;;;;;4936901;29;20042;-82
2022/05/24 18:35:51;;;;;;;30.88;15.65;;;;;;;;;;4936536;29;20063;-82
2022/05/24 18:38:17;;;;;;;21.25;12.73;;;;;;;;;;4919682;29;20050;-81
2022/05/24 18:40:43;;;;;;;21.65;13.52;;;;;;;;;;4936632;29;20475;-83
2022/05/24 18:43:08;;;;;;;6.60;5.90;;;;;;;;;;4936188;29;20031;-80
2022/05/24 18:45:34;;;;;;;18.80;12.25;;;;;;;;;;4936119;29;20020;-85
2022/05/24 18:48:05;;;;;;;12.85;7.40;;;;;;;;;;4935782;29;20059;-80
2022/05/24 18:50:31;;;;;;;11.88;7.10;;;;;;;;;;4936154;29;20028;-80
2022/05/24 18:52:57;;;;;;;11.30;6.57;;;;;;;;;;4936276;29;20395;-81
2022/05/24 18:55:22;;;;;;;14.68;7.43;;;;;;;;;;4936052;29;20032;-84
2022/05/24 18:57:48;;;;;;;12.95;5.80;;;;;;;;;;4936483;29;20028;-80
2022/05/24 19:00:13;;;;;;;11.48;4.13;;;;;;;;;;4919017;29;20035;-87
2022/05/24 19:02:39;;;;;;;7.82;4.93;;;;;;;;;;4935719;29;20123;-78
2022/05/24 19:05:06;;;;;;;10.25;4.38;;;;;;;;;;4935314;29;20167;-78
2022/05/24 19:07:32;;;;;;;9.82;5.18;;;;;;;;;;4936352;29;20086;-78
2022/05/24 19:09:58;;;;;;;10.77;7.18;;;;;;;;;;4935932;29;20031;-78
2022/05/24 19:12:26;;;;;;;22.20;9.25;;;;;;;;;;4919524;29;20035;-79
2022/05/24 19:14:52;;;;;;;19.52;10.10;;;;;;;;;;4935935;29;20039;-79
2022/05/24 19:17:24;;;;;;;20.95;12.40;;;;;;;;;;4919294;29;20410;-81
2022/05/24 19:19:50;;;;;;;21.50;11.55;;;;;;;;;;4936268;29;20039;-80
2022/05/24 19:22:16;;;;;;;21.80;11.68;;;;;;;;;;4936348;29;20028;-79
2022/05/24 19:24:42;;;;;;;16.35;10.25;;;;;;;;;;4936390;29;20028;-90
2022/05/24 19:27:11;;;;;;;14.13;9.60;;;;;;;;;;4936819;29;20028;-89
2022/05/24 19:29:39;;;;;;;14.98;10.07;;;;;;;;;;4936982;29;20032;-89
2022/05/24 19:32:05;;;;;;;15.48;10.18;;;;;;;;;;4936656;29;20486;-85
2022/05/24 19:34:33;;;;;;;14.60;10.32;;;;;;;;;;4918920;29;20109;-87
2022/05/24 19:37:15;;;;;;;18.48;11.07;;;;;;;;;;4936131;29;20474;-86
2022/05/24 19:42:25;;;;;;;20.10;12.02;;;;;;;;;;4937677;29;20096;-89
2022/05/24 19:44:51;;;;;;;21.48;12.18;;;;;;;;;;4937299;29;20023;-91
2022/05/24 19:47:19;;;;;;;19.77;12.15;;;;;;;;;;4936998;29;20028;-90
2022/05/24 19:49:47;;;;;;;17.85;10.43;;;;;;;;;;4936484;29;20364;-88
2022/05/24 19:52:15;;;;;;;15.10;10.13;;;;;;;;;;4936615;29;20027;-89
2022/05/24 19:54:42;;;;;;;16.02;10.38;;;;;;;;;;4938701;29;20615;-88
2022/05/24 19:57:09;;;;;;;15.55;10.55;;;;;;;;;;4936058;29;20023;-89
2022/05/24 19:59:36;;;;;;;15.05;10.27;;;;;;;;;;4936303;29;20051;-88
2022/05/24 20:02:01;;;;;;;16.00;10.35;;;;;;;;;;4923547;29;20035;-88
2022/05/24 20:04:26;;;;;;;14.45;9.38;;;;;;;;;;4928609;29;20071;-84
2022/05/24 20:06:53;;;;;;;21.33;12.02;;;;;;;;;;4951808;29;20047;-86
2022/05/24 20:09:19;;;;;;;21.35;13.32;;;;;;;;;;4942421;29;20034;-88
2022/05/24 20:11:44;;;;;;;24.17;13.55;;;;;;;;;;4941462;29;20028;-90
2022/05/24 20:14:10;;;;;;;19.13;12.38;;;;;;;;;;4940582;29;20081;-85
2022/05/24 20:16:36;;;;;;;23.75;13.73;;;;;;;;;;4945400;29;20382;-83
2022/05/24 20:19:04;;;;;;;20.25;12.73;;;;;;;;;;4949591;29;20020;-84
2022/05/24 20:21:29;;;;;;;20.02;12.05;;;;;;;;;;4952284;29;20475;-85
2022/05/24 20:23:58;;;;;;;21.50;13.82;;;;;;;;;;4953297;29;20052;-85
2022/05/24 20:26:24;;;;;;;20.38;13.63;;;;;;;;;;4952693;29;20024;-85
2022/05/24 20:28:50;;;;;;;22.05;13.00;;;;;;;;;;4952673;29;20058;-85
2022/05/24 20:31:15;;;;;;;15.73;12.02;;;;;;;;;;4955191;29;20471;-84
2022/05/24 20:33:41;;;;;;;21.02;12.10;;;;;;;;;;4956799;29;20035;-84
2022/05/24 20:36:07;;;;;;;17.70;12.32;;;;;;;;;;4956639;29;20020;-83
2022/05/24 20:38:36;;;;;;;17.27;12.65;;;;;;;;;;4958010;29;20039;-85
2022/05/24 20:41:11;;;;;;;18.77;12.37;;;;;;;;;;4957649;29;20024;-88
2022/05/24 20:43:37;;;;;;;17.73;12.25;;;;;;;;;;4958074;29;20028;-92
2022/05/24 20:46:03;;;;;;;20.70;12.82;;;;;;;;;;4944749;29;20043;-86
2022/05/24 20:48:29;;;;;;;15.00;10.98;;;;;;;;;;4945708;29;20474;-91
2022/05/24 20:50:54;;;;;;;16.42;11.43;;;;;;;;;;4945192;29;20028;-91
2022/05/24 20:53:20;;;;;;;15.95;11.20;;;;;;;;;;4945459;29;20035;-90
2022/05/24 20:55:45;;;;;;;15.52;11.13;;;;;;;;;;4950392;29;20593;-87
2022/05/24 20:58:10;;;;;;;15.00;11.05;;;;;;;;;;4943214;29;20371;-95
2022/05/24 21:00:36;;;;;;;14.25;10.85;;;;;;;;;;4943259;29;20028;-93
2022/05/24 21:03:01;;;;;;;14.27;10.55;;;;;;;;;;4943467;29;20024;-88
2022/05/24 21:05:27;;;;;;;15.07;10.00;;;;;;;;;;4943694;29;20051;-93
2022/05/24 21:07:52;;;;;;;15.15;10.45;;;;;;;;;;4943325;29;20046;-94
2022/05/24 21:10:19;;;;;;;14.43;10.90;;;;;;;;;;4944342;29;20113;-95
2022/05/24 21:12:44;;;;;;;12.38;9.48;;;;;;;;;;4953289;29;20035;-85
